createdAt,value
2018-09-17T00:00:26.049Z,97987.39
2018-09-17T00:02:54.610Z,97986.48
2018-09-17T00:05:23.148Z,97983.39
2018-09-17T00:07:51.680Z,97987.66
2018-09-17T00:10:20.328Z,97984.16
2018-09-17T00:12:48.867Z,97978.59
2018-09-17T00:15:17.398Z,97980.61
2018-09-17T00:17:45.935Z,97971.71
2018-09-17T00:20:14.465Z,97978.65
2018-09-17T00:22:42.987Z,97975.20
2018-09-17T00:25:11.628Z,97975.16
2018-09-17T00:27:40.194Z,97974.75
2018-09-17T00:30:08.776Z,97972.59
2018-09-17T00:32:37.368Z,97974.27
2018-09-17T00:35:05.910Z,97974.61
2018-09-17T00:37:34.477Z,97968.65
2018-09-17T00:40:03.012Z,97968.94
2018-09-17T00:42:31.540Z,97962.00
2018-09-17T00:45:00.049Z,97969.20
2018-09-17T00:47:28.602Z,97963.63
2018-09-17T00:49:57.179Z,97967.52
2018-09-17T00:52:25.694Z,97963.63
2018-09-17T00:54:54.222Z,97955.12
2018-09-17T00:57:22.771Z,97951.86
2018-09-17T00:59:51.426Z,97951.34
2018-09-17T01:02:19.927Z,97944.84
2018-09-17T01:04:48.423Z,97950.78
2018-09-17T01:07:17.001Z,97946.95
2018-09-17T01:09:45.544Z,97948.56
2018-09-17T01:12:15.356Z,97948.52
2018-09-17T01:14:44.126Z,97943.40
2018-09-17T01:19:57.946Z,97938.71
2018-09-17T01:22:26.507Z,97946.73
2018-09-17T01:24:55.011Z,97945.34
2018-09-17T01:27:23.594Z,97938.89
2018-09-17T01:29:52.091Z,97936.33
2018-09-17T01:32:20.635Z,97938.50
2018-09-17T01:34:49.184Z,97935.88
2018-09-17T01:37:18.719Z,97943.07
2018-09-17T01:39:47.273Z,97940.89
2018-09-17T01:42:15.795Z,97940.01
2018-09-17T01:44:44.358Z,97939.55
2018-09-17T01:47:13.028Z,97936.56
2018-09-17T01:49:41.573Z,97932.78
2018-09-17T01:52:10.181Z,97934.06
2018-09-17T01:54:38.679Z,97928.16
2018-09-17T01:57:07.219Z,97929.44
2018-09-17T01:59:35.751Z,97933.55
2018-09-17T02:02:05.491Z,97931.94
2018-09-17T02:04:34.035Z,97931.11
2018-09-17T02:07:02.625Z,97936.23
2018-09-17T02:09:31.190Z,97934.06
2018-09-17T02:11:59.795Z,97942.56
2018-09-17T02:14:28.344Z,97944.19
2018-09-17T02:16:56.872Z,97943.34
2018-09-17T02:19:25.459Z,97945.89
2018-09-17T02:21:53.987Z,97944.08
2018-09-17T02:24:22.689Z,97949.13
2018-09-17T02:26:51.250Z,97947.41
2018-09-17T02:29:19.857Z,97949.62
2018-09-17T02:31:48.403Z,97947.91
2018-09-17T02:34:17.096Z,97950.84
2018-09-17T02:36:45.851Z,97950.47
2018-09-17T02:39:15.126Z,97950.47
2018-09-17T02:41:44.407Z,97947.86
2018-09-17T02:44:14.029Z,97950.41
2018-09-17T02:46:42.606Z,97948.29
2018-09-17T02:49:11.262Z,97945.78
2018-09-17T02:51:39.835Z,97947.62
2018-09-17T02:54:08.417Z,97949.84
2018-09-17T02:56:37.005Z,97943.90
2018-09-17T02:59:05.559Z,97939.72
2018-09-17T03:01:34.072Z,97945.69
2018-09-17T03:04:02.704Z,97943.13
2018-09-17T03:06:31.287Z,97943.66
2018-09-17T03:08:59.885Z,97942.49
2018-09-17T03:11:28.802Z,97953.68
2018-09-17T03:13:57.357Z,97951.13
2018-09-17T03:16:25.898Z,97961.95
2018-09-17T03:18:55.742Z,97955.61
2018-09-17T03:21:25.072Z,97965.02
2018-09-17T03:23:53.886Z,97956.55
2018-09-17T03:26:22.724Z,97956.06
2018-09-17T03:28:51.298Z,97958.11
2018-09-17T03:31:19.902Z,97954.56
2018-09-17T03:33:48.461Z,97963.52
2018-09-17T03:36:17.024Z,97966.42
2018-09-17T03:38:50.098Z,97969.80
2018-09-17T03:41:19.721Z,97973.30
2018-09-17T03:43:52.370Z,97975.42
2018-09-17T03:46:20.933Z,97976.30
2018-09-17T03:48:49.735Z,97983.09
2018-09-17T03:51:18.553Z,97982.30
2018-09-17T03:53:47.104Z,97982.76
2018-09-17T03:56:15.680Z,97984.48
2018-09-17T03:58:44.265Z,97982.36
2018-09-17T04:01:12.796Z,97989.55
2018-09-17T04:03:41.438Z,97991.66
2018-09-17T04:06:09.984Z,97989.49
2018-09-17T04:08:38.542Z,97996.37
2018-09-17T04:11:07.059Z,97996.77
2018-09-17T04:13:35.694Z,97999.33
2018-09-17T04:16:04.252Z,98000.16
2018-09-17T04:18:32.862Z,98002.72
2018-09-17T04:21:01.440Z,98003.05
2018-09-17T04:23:32.794Z,98000.05
2018-09-17T04:26:01.813Z,97999.99
2018-09-17T04:28:30.444Z,98007.23
2018-09-17T04:30:59.279Z,98011.95
2018-09-17T04:33:29.286Z,98014.11
2018-09-17T04:35:57.888Z,98013.17
2018-09-17T04:38:26.461Z,98017.07
2018-09-17T04:40:55.054Z,98016.19
2018-09-17T04:43:23.666Z,98022.24
2018-09-17T04:45:52.272Z,98014.56
2018-09-17T04:48:20.975Z,98020.14
2018-09-17T04:50:49.624Z,98014.11
2018-09-17T04:53:18.310Z,98025.03
2018-09-17T04:55:46.888Z,98029.18
2018-09-17T04:58:15.539Z,98027.95
2018-09-17T05:00:44.109Z,98019.23
2018-09-17T05:03:13.706Z,98028.01
2018-09-17T05:05:42.876Z,98026.05
2018-09-17T05:08:11.458Z,98033.99
2018-09-17T05:10:40.016Z,98029.25
2018-09-17T05:13:08.707Z,98033.81
2018-09-17T05:15:37.160Z,98030.35
2018-09-17T05:18:06.031Z,98033.19
2018-09-17T05:20:34.583Z,98033.89
2018-09-17T05:23:03.171Z,98043.63
2018-09-17T05:25:31.751Z,98039.39
2018-09-17T05:28:00.356Z,98040.16
2018-09-17T05:30:29.943Z,98044.84
2018-09-17T05:32:58.516Z,98043.50
2018-09-17T05:35:27.083Z,98040.50
2018-09-17T05:37:55.751Z,98040.89
2018-09-17T05:40:24.429Z,98041.72
2018-09-17T05:42:52.966Z,98047.77
2018-09-17T05:45:21.563Z,98046.00
2018-09-17T05:47:50.230Z,98040.50
2018-09-17T05:50:18.718Z,98043.27
2018-09-17T05:52:47.315Z,98043.58
2018-09-17T05:55:15.874Z,98039.62
2018-09-17T05:57:44.432Z,98040.71
2018-09-17T06:00:13.012Z,98035.30
2018-09-17T06:02:41.615Z,98031.84
2018-09-17T06:05:10.184Z,98038.73
2018-09-17T06:07:38.783Z,98037.88
2018-09-17T06:10:12.560Z,98036.79
2018-09-17T06:12:41.110Z,98038.34
2018-09-17T06:15:09.653Z,98038.41
2018-09-17T06:17:38.345Z,98042.08
2018-09-17T06:20:06.851Z,98042.17
2018-09-17T06:22:35.446Z,98047.74
2018-09-17T06:25:04.348Z,98049.31
2018-09-17T06:27:32.869Z,98051.25
2018-09-17T06:30:01.402Z,98047.30
2018-09-17T06:32:30.004Z,98051.39
2018-09-17T06:34:58.636Z,98048.14
2018-09-17T06:37:27.162Z,98045.41
2018-09-17T06:39:55.702Z,98053.20
2018-09-17T06:42:24.274Z,98051.41
2018-09-17T06:44:52.917Z,98048.33
2018-09-17T06:47:22.388Z,98040.67
2018-09-17T06:49:51.023Z,98039.39
2018-09-17T06:52:19.585Z,98046.62
2018-09-17T06:54:48.192Z,98048.72
2018-09-17T06:57:16.767Z,98054.91
2018-09-17T06:59:45.306Z,98046.95
2018-09-17T07:02:13.955Z,98045.41
2018-09-17T07:04:42.549Z,98047.89
2018-09-17T07:07:11.763Z,98048.88
2018-09-17T07:09:41.155Z,98047.33
2018-09-17T07:12:09.858Z,98051.73
2018-09-17T07:14:38.437Z,98048.98
2018-09-17T07:17:07.041Z,98050.39
2018-09-17T07:19:35.560Z,98045.34
2018-09-17T07:22:04.112Z,98052.86
2018-09-17T07:24:32.705Z,98049.55
2018-09-17T07:27:01.215Z,98048.06
2018-09-17T07:29:29.710Z,98060.62
2018-09-17T07:31:58.194Z,98055.97
2018-09-17T07:34:26.670Z,98058.32
2018-09-17T07:36:55.179Z,98054.86
2018-09-17T07:39:23.650Z,98057.69
2018-09-17T07:41:52.395Z,98052.39
2018-09-17T07:44:20.903Z,98052.75
2018-09-17T07:46:49.394Z,98046.66
2018-09-17T07:49:17.910Z,98051.16
2018-09-17T07:51:46.394Z,98059.06
2018-09-17T07:54:14.901Z,98057.59
2018-09-17T07:56:43.798Z,98047.91
2018-09-17T07:59:12.273Z,98049.41
2018-09-17T08:01:40.854Z,98043.59
2018-09-17T08:04:09.371Z,98043.30
2018-09-17T08:06:37.880Z,98049.38
2018-09-17T08:09:09.695Z,98049.09
2018-09-17T08:11:38.311Z,98048.33
2018-09-17T08:14:06.971Z,98044.16
2018-09-17T08:16:35.696Z,98041.70
2018-09-17T08:19:04.319Z,98037.19
2018-09-17T08:21:32.835Z,98033.41
2018-09-17T08:24:01.352Z,98033.95
2018-09-17T08:26:29.887Z,98040.40
2018-09-17T08:28:58.400Z,98033.66
2018-09-17T08:31:26.924Z,98035.84
2018-09-17T08:33:55.412Z,98039.34
2018-09-17T08:36:23.940Z,98039.34
2018-09-17T08:38:52.439Z,98032.95
2018-09-17T08:41:20.939Z,98029.94
2018-09-17T08:43:49.467Z,98031.16
2018-09-17T08:46:17.979Z,98031.61
2018-09-17T08:48:46.666Z,98029.10
2018-09-17T08:51:15.176Z,98026.20
2018-09-17T08:53:43.824Z,98032.71
2018-09-17T08:56:17.395Z,98026.31
2018-09-17T08:58:51.083Z,98027.16
2018-09-17T09:01:24.891Z,98023.38
2018-09-17T09:03:58.777Z,98027.27
2018-09-17T09:07:33.380Z,98021.75
2018-09-17T09:10:07.209Z,98013.25
2018-09-17T09:12:40.243Z,98016.23
2018-09-17T09:15:13.911Z,98007.78
2018-09-17T09:17:42.404Z,98003.23
2018-09-17T09:20:10.887Z,98003.66
2018-09-17T09:22:39.419Z,98001.60
2018-09-17T09:25:07.993Z,97996.13
2018-09-17T09:27:36.470Z,97997.87
2018-09-17T09:30:05.130Z,97991.86
2018-09-17T09:32:33.655Z,97990.19
2018-09-17T09:35:02.163Z,97991.47
2018-09-17T09:37:30.675Z,97988.03
2018-09-17T09:39:59.163Z,97986.40
2018-09-17T09:42:27.652Z,97987.17
2018-09-17T09:44:56.165Z,97982.91
2018-09-17T09:47:24.647Z,97981.28
2018-09-17T09:49:53.130Z,97980.00
2018-09-17T09:52:21.618Z,97977.84
2018-09-17T09:54:50.095Z,97974.83
2018-09-17T09:57:18.621Z,97978.72
2018-09-17T09:59:47.105Z,97975.28
2018-09-17T10:03:23.629Z,97975.33
2018-09-17T10:05:52.107Z,97979.12
2018-09-17T10:08:20.609Z,97975.77
2018-09-17T10:10:54.412Z,97972.77
2018-09-17T10:13:28.230Z,97972.72
2018-09-17T10:15:58.061Z,97968.93
2018-09-17T10:18:31.970Z,97967.59
2018-09-17T10:21:02.198Z,97967.59
2018-09-17T10:23:30.791Z,97962.96
2018-09-17T10:25:59.551Z,97961.73
2018-09-17T10:28:29.007Z,97958.74
2018-09-17T10:30:57.987Z,97958.39
2018-09-17T10:33:26.687Z,97952.39
2018-09-17T10:35:55.330Z,97952.45
2018-09-17T10:38:23.924Z,97953.73
2018-09-17T10:40:52.577Z,97945.70
2018-09-17T10:43:21.193Z,97951.75
2018-09-17T10:45:49.748Z,97943.19
2018-09-17T10:48:18.314Z,97948.36
2018-09-17T10:50:46.919Z,97942.36
2018-09-17T10:53:15.625Z,97937.67
2018-09-17T10:55:44.201Z,97937.23
2018-09-17T10:58:12.797Z,97941.13
2018-09-17T11:00:41.463Z,97934.73
2018-09-17T11:03:10.007Z,97940.33
2018-09-17T11:05:38.562Z,97934.38
2018-09-17T11:08:07.231Z,97923.31
2018-09-17T11:10:35.822Z,97929.70
2018-09-17T11:13:04.388Z,97927.14
2018-09-17T11:15:38.170Z,97931.42
2018-09-17T11:18:06.827Z,97928.37
2018-09-17T11:20:35.494Z,97928.91
2018-09-17T11:23:04.022Z,97925.92
2018-09-17T11:25:32.544Z,97919.11
2018-09-17T11:28:01.055Z,97920.00
2018-09-17T11:30:29.563Z,97913.12
2018-09-17T11:32:58.080Z,97914.39
2018-09-17T11:35:26.557Z,97908.42
2018-09-17T11:37:55.045Z,97900.80
2018-09-17T11:40:23.545Z,97898.69
2018-09-17T11:42:52.039Z,97902.47
2018-09-17T11:45:20.523Z,97897.41
2018-09-17T11:47:49.028Z,97890.17
2018-09-17T11:50:17.527Z,97890.60
2018-09-17T11:52:46.028Z,97888.84
2018-09-17T11:55:14.518Z,97890.91
2018-09-17T11:57:43.016Z,97889.27
2018-09-17T12:00:11.559Z,97882.92
2018-09-17T12:02:44.173Z,97876.09
2018-09-17T12:05:16.783Z,97870.56
2018-09-17T12:07:45.278Z,97871.02
2018-09-17T12:10:13.793Z,97868.10
2018-09-17T12:12:42.292Z,97864.61
2018-09-17T12:15:10.812Z,97859.48
2018-09-17T12:17:39.294Z,97854.90
2018-09-17T12:20:07.776Z,97855.74
2018-09-17T12:22:36.315Z,97854.02
2018-09-17T12:25:04.818Z,97853.19
2018-09-17T12:27:33.511Z,97841.71
2018-09-17T12:30:02.114Z,97833.62
2018-09-17T12:32:30.736Z,97830.23
2018-09-17T12:34:59.316Z,97830.23
2018-09-17T12:37:30.065Z,97829.44
2018-09-17T12:39:58.707Z,97831.56
2018-09-17T12:42:27.383Z,97826.92
2018-09-17T12:44:56.017Z,97823.08
2018-09-17T12:47:24.621Z,97822.20
2018-09-17T12:49:53.227Z,97818.80
2018-09-17T12:52:21.937Z,97816.20
2018-09-17T12:54:50.564Z,97811.91
2018-09-17T12:57:19.258Z,97808.47
2018-09-17T12:59:47.862Z,97808.91
2018-09-17T13:02:16.906Z,97812.26
2018-09-17T13:04:45.801Z,97812.26
2018-09-17T13:07:14.409Z,97811.81
2018-09-17T13:09:43.064Z,97811.86
2018-09-17T13:12:11.664Z,97809.70
2018-09-17T13:14:40.311Z,97811.37
2018-09-17T13:17:08.944Z,97801.57
2018-09-17T13:19:37.553Z,97796.85
2018-09-17T13:22:06.159Z,97792.56
2018-09-17T13:24:44.630Z,97787.84
2018-09-17T13:27:13.160Z,97788.72
2018-09-17T13:29:41.792Z,97790.79
2018-09-17T13:32:10.467Z,97085.08
2018-09-17T13:34:39.621Z,97783.59
2018-09-17T13:37:09.364Z,97787.58
2018-09-17T13:39:37.940Z,97778.27
2018-09-17T13:42:06.577Z,97777.83
2018-09-17T13:44:35.197Z,97778.62
2018-09-17T13:47:03.960Z,97773.85
2018-09-17T13:49:32.508Z,97770.89
2018-09-17T13:52:01.117Z,97763.16
2018-09-17T13:54:29.907Z,97760.20
2018-09-17T13:56:58.570Z,97753.36
2018-09-17T13:59:27.211Z,97759.86
2018-09-17T14:01:55.760Z,97763.74
2018-09-17T14:04:24.458Z,97755.66
2018-09-17T14:06:53.058Z,97752.27
2018-09-17T14:09:21.663Z,97755.30
2018-09-17T14:11:50.307Z,97744.58
2018-09-17T14:14:18.937Z,97744.22
2018-09-17T14:16:47.575Z,97742.11
2018-09-17T14:19:16.172Z,97739.94
2018-09-17T14:21:44.741Z,97738.18
2018-09-17T14:24:13.312Z,97737.29
2018-09-17T14:26:41.858Z,97734.25
2018-09-17T14:29:11.031Z,97730.45
2018-09-17T14:32:45.545Z,97731.73
2018-09-17T14:35:14.195Z,97722.72
2018-09-17T14:37:45.694Z,97724.39
2018-09-17T14:40:14.335Z,97721.00
2018-09-17T14:42:42.982Z,97723.11
2018-09-17T14:45:11.583Z,97719.67
2018-09-17T14:47:40.222Z,97720.08
2018-09-17T14:50:08.795Z,97726.03
2018-09-17T14:52:37.484Z,97717.11
2018-09-17T14:55:06.158Z,97717.95
2018-09-17T14:57:34.732Z,97718.80
2018-09-17T15:00:03.418Z,97717.52
2018-09-17T15:02:32.169Z,97715.44
2018-09-17T15:05:00.722Z,97715.79
2018-09-17T15:07:29.324Z,97718.34
2018-09-17T15:09:58.238Z,97714.55
2018-09-17T15:12:26.855Z,97712.35
2018-09-17T15:14:55.609Z,97716.23
2018-09-17T15:17:24.184Z,97712.35
2018-09-17T15:19:52.698Z,97710.22
2018-09-17T15:22:21.384Z,97704.22
2018-09-17T15:24:49.986Z,97713.27
2018-09-17T15:27:18.470Z,97702.59
2018-09-17T15:29:46.955Z,97705.55
2018-09-17T15:32:15.520Z,97705.14
2018-09-17T15:34:43.973Z,97701.66
2018-09-17T15:37:12.565Z,97698.27
2018-09-17T15:39:41.043Z,97699.55
2018-09-17T15:42:09.582Z,97694.47
2018-09-17T15:44:38.081Z,97691.46
2018-09-17T15:47:06.620Z,97688.50
2018-09-17T15:49:35.195Z,97692.78
2018-09-17T15:52:03.670Z,97693.19
2018-09-17T15:54:32.191Z,97691.06
2018-09-17T15:57:00.716Z,97682.50
2018-09-17T15:59:29.219Z,97687.62
2018-09-17T16:01:57.728Z,97686.34
2018-09-17T16:04:26.303Z,97680.34
2018-09-17T16:06:54.814Z,97683.73
2018-09-17T16:09:23.445Z,97685.06
2018-09-17T16:11:52.223Z,97685.47
2018-09-17T16:14:20.703Z,97685.86
2018-09-17T16:16:49.233Z,97691.37
2018-09-17T16:19:17.838Z,97687.58
2018-09-17T16:21:46.383Z,97684.97
2018-09-17T16:24:14.906Z,97685.86
2018-09-17T16:26:43.443Z,97687.98
2018-09-17T16:29:11.928Z,97681.58
2018-09-17T16:31:40.449Z,97685.89
2018-09-17T16:34:09.012Z,97680.77
2018-09-17T16:36:37.566Z,97680.30
2018-09-17T16:39:08.398Z,97678.58
2018-09-17T16:41:37.039Z,97676.02
2018-09-17T16:44:05.599Z,97674.69
2018-09-17T16:46:34.719Z,97678.97
2018-09-17T16:49:03.425Z,97679.85
2018-09-17T16:51:32.346Z,97679.81
2018-09-17T16:54:00.849Z,97676.84
2018-09-17T16:56:29.358Z,97675.09
2018-09-17T16:58:57.987Z,97675.05
2018-09-17T17:01:26.461Z,97673.77
2018-09-17T17:03:54.975Z,97673.77
2018-09-17T17:06:23.723Z,97672.08
2018-09-17T17:08:52.274Z,97668.25
2018-09-17T17:11:20.893Z,97672.48
2018-09-17T17:13:49.424Z,97671.73
2018-09-17T17:16:17.985Z,97668.33
2018-09-17T17:18:46.492Z,97667.97
2018-09-17T17:21:14.910Z,97671.38
2018-09-17T17:23:43.504Z,97675.17
2018-09-17T17:26:12.002Z,97676.37
2018-09-17T17:28:41.355Z,97677.65
2018-09-17T17:31:09.951Z,97673.77
2018-09-17T17:33:38.455Z,97680.16
2018-09-17T17:36:07.023Z,97679.32
2018-09-17T17:38:35.715Z,97677.16
2018-09-17T17:41:04.255Z,97677.56
2018-09-17T17:43:32.745Z,97674.60
2018-09-17T17:46:01.350Z,97687.80
2018-09-17T17:48:29.802Z,97681.84
2018-09-17T17:50:58.352Z,97682.23
2018-09-17T17:53:26.907Z,97682.64
2018-09-17T17:55:55.382Z,97681.79
2018-09-17T17:58:23.953Z,97685.20
2018-09-17T18:00:52.448Z,97689.92
2018-09-17T18:03:21.022Z,97691.20
2018-09-17T18:05:49.675Z,97698.87
2018-09-17T18:08:18.245Z,97699.28
2018-09-17T18:10:46.857Z,97693.76
2018-09-17T18:13:15.636Z,97696.77
2018-09-17T18:15:44.183Z,97698.09
2018-09-17T18:18:12.779Z,97699.37
2018-09-17T18:20:41.411Z,97699.33
2018-09-17T18:23:09.968Z,97694.16
2018-09-17T18:25:38.543Z,97701.04
2018-09-17T18:28:07.241Z,97698.48
2018-09-17T18:30:35.868Z,97698.87
2018-09-17T18:33:05.123Z,97706.16
2018-09-17T18:35:33.682Z,97708.77
2018-09-17T18:38:02.322Z,97710.09
2018-09-17T18:40:30.867Z,97705.77
2018-09-17T18:42:59.535Z,97711.81
2018-09-17T18:45:27.990Z,97710.09
2018-09-17T18:47:56.719Z,97707.09
2018-09-17T18:50:25.270Z,97710.53
2018-09-17T18:52:53.966Z,97704.53
2018-09-17T18:55:22.531Z,97706.34
2018-09-17T18:57:51.153Z,97702.06
2018-09-17T19:00:19.743Z,97708.47
2018-09-17T19:02:48.452Z,97714.42
2018-09-17T19:05:17.134Z,97712.22
2018-09-17T19:07:45.744Z,97716.94
2018-09-17T19:10:14.311Z,97718.30
2018-09-17T19:12:43.021Z,97710.58
2018-09-17T19:15:16.881Z,97707.58
2018-09-17T19:17:45.394Z,97709.21
2018-09-17T19:20:14.010Z,97705.77
2018-09-17T19:22:47.798Z,97707.53
2018-09-17T19:25:16.709Z,97709.25
2018-09-17T19:27:50.427Z,97701.53
2018-09-17T19:30:20.229Z,97706.25
2018-09-17T19:32:48.756Z,97708.38
2018-09-17T19:35:17.327Z,97707.05
2018-09-17T19:37:51.108Z,97703.21
2018-09-17T19:40:21.268Z,97703.64
2018-09-17T19:42:50.644Z,97705.77
2018-09-17T19:45:24.378Z,97704.09
2018-09-17T19:47:53.390Z,97707.09
2018-09-17T19:50:27.115Z,97702.41
2018-09-17T19:52:55.817Z,97700.25
2018-09-17T19:55:24.350Z,97698.92
2018-09-17T19:57:58.101Z,97702.81
2018-09-17T20:00:26.794Z,97708.33
2018-09-17T20:02:55.289Z,97701.08
2018-09-17T20:05:29.359Z,97701.93
2018-09-17T20:07:57.882Z,97695.96
2018-09-17T20:10:26.493Z,97701.48
2018-09-17T20:12:55.042Z,97698.48
2018-09-17T20:15:23.598Z,97703.59
2018-09-17T20:17:52.189Z,97702.32
2018-09-17T20:20:20.857Z,97700.61
2018-09-17T20:22:49.453Z,97689.30
2018-09-17T20:25:18.003Z,97701.04
2018-09-17T20:27:46.579Z,97703.59
2018-09-17T20:30:15.218Z,97699.76
2018-09-17T20:32:43.996Z,97699.33
2018-09-17T20:35:12.595Z,97701.84
2018-09-17T20:37:41.170Z,97696.72
2018-09-17T20:40:09.677Z,97694.59
2018-09-17T20:42:38.191Z,97694.59
2018-09-17T20:45:06.784Z,97695.04
2018-09-17T20:47:35.300Z,97693.76
2018-09-17T20:50:03.820Z,97694.99
2018-09-17T20:52:32.458Z,97688.19
2018-09-17T20:55:01.130Z,97693.27
2018-09-17T20:57:29.677Z,97693.31
2018-09-17T20:59:58.697Z,97697.16
2018-09-17T21:02:27.218Z,97692.88
2018-09-17T21:04:55.807Z,97693.31
2018-09-17T21:07:24.383Z,97690.31
2018-09-17T21:09:52.935Z,97688.55
2018-09-17T21:12:21.560Z,97689.48
2018-09-17T21:14:50.117Z,97690.31
2018-09-17T21:17:18.657Z,97691.55
2018-09-17T21:19:47.226Z,97691.55
2018-09-17T21:22:15.896Z,97695.92
2018-09-17T21:24:45.392Z,97696.27
2018-09-17T21:27:13.948Z,97692.39
2018-09-17T21:29:42.545Z,97692.39
2018-09-17T21:32:11.149Z,97694.95
2018-09-17T21:34:39.681Z,97691.11
2018-09-17T21:37:08.239Z,97694.95
2018-09-17T21:39:36.769Z,97691.55
2018-09-17T21:42:05.286Z,97690.66
2018-09-17T21:44:33.843Z,97693.27
2018-09-17T21:47:02.379Z,97687.67
2018-09-17T21:49:30.920Z,97686.87
2018-09-17T21:51:59.498Z,97685.98
2018-09-17T21:54:28.060Z,97679.59
2018-09-17T21:56:56.610Z,97678.31
2018-09-17T21:59:25.273Z,97683.03
2018-09-17T22:01:53.898Z,97683.47
2018-09-17T22:04:22.496Z,97680.87
2018-09-17T22:06:50.991Z,97689.43
2018-09-17T22:09:19.527Z,97685.16
2018-09-17T22:11:48.152Z,97683.03
2018-09-17T22:14:16.832Z,97676.63
2018-09-17T22:16:45.318Z,97676.63
2018-09-17T22:19:13.886Z,97676.63
2018-09-17T22:21:42.439Z,97676.67
2018-09-17T22:24:11.020Z,97666.00
2018-09-17T22:26:39.560Z,97672.00
2018-09-17T22:29:08.304Z,97667.28
2018-09-17T22:31:36.781Z,97668.16
2018-09-17T22:34:05.311Z,97667.23
2018-09-17T22:36:33.834Z,97662.59
2018-09-17T22:39:02.474Z,97660.43
2018-09-17T22:41:31.014Z,97652.75
2018-09-17T22:43:59.543Z,97654.03
2018-09-17T22:46:28.172Z,97651.47
2018-09-17T22:48:56.747Z,97651.07
2018-09-17T22:51:25.967Z,97651.03
2018-09-17T22:53:55.050Z,97647.59
2018-09-17T22:56:23.602Z,97648.47
2018-09-17T22:58:52.129Z,97650.59
2018-09-17T23:01:20.691Z,97649.75
2018-09-17T23:03:49.237Z,97651.83
2018-09-17T23:06:17.711Z,97647.98
2018-09-17T23:08:46.225Z,97650.98
2018-09-17T23:11:14.757Z,97652.31
2018-09-17T23:13:43.315Z,97648.47
2018-09-17T23:16:11.833Z,97651.03
2018-09-17T23:18:40.333Z,97653.59
2018-09-17T23:21:08.930Z,97647.14
2018-09-17T23:23:37.476Z,97649.27
2018-09-17T23:26:06.060Z,97647.55
2018-09-17T23:28:34.626Z,97643.70
2018-09-17T23:31:03.210Z,97647.55
2018-09-17T23:33:31.814Z,97647.09
2018-09-17T23:36:00.411Z,97642.83
2018-09-17T23:38:29.922Z,97644.11
2018-09-17T23:40:58.504Z,97643.66
2018-09-17T23:43:27.114Z,97642.83
2018-09-17T23:45:55.598Z,97644.54
2018-09-17T23:48:24.162Z,97645.39
2018-09-17T23:50:52.699Z,97641.14
2018-09-17T23:53:21.253Z,97638.98
2018-09-17T23:55:49.802Z,97637.66
2018-09-17T23:58:18.315Z,97632.14
